PWSweather.com
Personal Weather Stations
Station Observations
UISISLE1
Newport, Isle ofWight, ISLE OF WIGHT PO30 2JX

NewportIsle ofWight, ISLE OF WIGHT PO30 2JX

Lat: 50.72, Lon: -1.27

Elevation: 45

Station Type: Davis Vantage Pro Plus

http://www.isleofwightweather.co.uk

High Low Average
Temperature 54.0°F12.2°C 45.5°F7.5°C 50.2°F10.1°C
Dew Point 51.4°F10.8°C 43.6°F6.4°C 48.8°F9.3°C
Winds 17.9 mph 28.8 kmh 2.4 mph 3.9 kmh 10.0 mph WSW16.1 kmh WSW
Wind Gusts 31.0 mph49.9 kmh 4.0 mph6.4 kmh 16.0 mph25.7 kmh
Humidity 97% 87% 95%
Pressure 29.83 in1010.2 mb 29.65 in1004.1 mb -
Precipitation 0.09 in2.3 mm - -
Hour Temp Dew Point Humidity Winds Wind Gusts Pressure Precip Precip Rate Daily Precip Total
12:00 AM 50.5°F10.3°C 49.1°F9.5°C 95% 9.4 mph S15.1 kmh S 15.0 mph24.1 kmh 29.83 in1010.2 mb - 0.00 in0.0 mm 0.00 in0.0 mm
12:15 AM 50.6°F10.3°C 49.5°F9.7°C 96% 8.2 mph WSW13.2 kmh WSW 12.0 mph19.3 kmh 29.82 in1009.8 mb - 0.00 in0.0 mm 0.00 in0.0 mm
12:30 AM 50.6°F10.3°C 49.5°F9.7°C 96% 12.4 mph SW20.0 kmh SW 17.0 mph27.4 kmh 29.82 in1009.8 mb - 0.00 in0.0 mm 0.00 in0.0 mm
12:45 AM 50.6°F10.3°C 49.5°F9.7°C 96% 12.8 mph SW20.6 kmh SW 21.0 mph33.8 kmh 29.81 in1009.5 mb - 0.00 in0.0 mm 0.00 in0.0 mm
01:00 AM 50.6°F10.3°C 49.5°F9.7°C 96% 9.5 mph WSW15.3 kmh WSW 18.0 mph29.0 kmh 29.81 in1009.5 mb - 0.00 in0.0 mm 0.00 in0.0 mm
01:15 AM 50.6°F10.3°C 49.5°F9.7°C 96% 9.6 mph SW15.4 kmh SW 14.0 mph22.5 kmh 29.81 in1009.5 mb - 0.00 in0.0 mm 0.00 in0.0 mm
01:30 AM 50.5°F10.3°C 49.4°F9.7°C 96% 7.3 mph S11.7 kmh S 11.0 mph17.7 kmh 29.80 in1009.1 mb - 0.01 in0.3 mm 0.01 in0.3 mm
01:45 AM 50.5°F10.3°C 49.4°F9.7°C 96% 8.6 mph SW13.8 kmh SW 15.0 mph24.1 kmh 29.80 in1009.1 mb - 0.00 in0.0 mm 0.01 in0.3 mm
02:00 AM 50.5°F10.3°C 49.4°F9.7°C 96% 8.9 mph SW14.3 kmh SW 13.0 mph20.9 kmh 29.80 in1009.1 mb - 0.00 in0.0 mm 0.01 in0.3 mm
02:15 AM 50.5°F10.3°C 49.4°F9.7°C 96% 7.2 mph WSW11.6 kmh WSW 9.0 mph14.5 kmh 29.79 in1008.8 mb - 0.01 in0.3 mm 0.02 in0.5 mm
02:30 AM 50.5°F10.3°C 49.4°F9.7°C 96% 10.5 mph SW16.9 kmh SW 17.0 mph27.4 kmh 29.78 in1008.5 mb - 0.01 in0.3 mm 0.02 in0.5 mm
02:45 AM 50.5°F10.3°C 49.7°F9.8°C 97% 11.3 mph SW18.2 kmh SW 14.0 mph22.5 kmh 29.78 in1008.5 mb - 0.00 in0.0 mm 0.02 in0.5 mm
03:00 AM 50.5°F10.3°C 49.7°F9.8°C 97% 11.9 mph WSW19.2 kmh WSW 18.0 mph29.0 kmh 29.77 in1008.1 mb - 0.01 in0.3 mm 0.03 in0.8 mm
03:15 AM 50.6°F10.3°C 49.7°F9.8°C 97% 10.3 mph SW16.6 kmh SW 15.0 mph24.1 kmh 29.77 in1008.1 mb - 0.00 in0.0 mm 0.03 in0.8 mm
03:30 AM 50.6°F10.3°C 49.8°F9.9°C 97% 7.1 mph SW11.4 kmh SW 13.0 mph20.9 kmh 29.77 in1008.1 mb - 0.01 in0.3 mm 0.04 in1.0 mm
03:45 AM 50.5°F10.3°C 49.7°F9.8°C 97% 12.2 mph WNW19.6 kmh WNW 18.0 mph29.0 kmh 29.76 in1007.8 mb - 0.00 in0.0 mm 0.04 in1.0 mm
04:00 AM 50.5°F10.3°C 49.7°F9.8°C 97% 9.4 mph W15.1 kmh W 15.0 mph24.1 kmh 29.76 in1007.8 mb - 0.00 in0.0 mm 0.04 in1.0 mm
04:15 AM 50.6°F10.3°C 49.8°F9.9°C 97% 9.8 mph W15.8 kmh W 14.0 mph22.5 kmh 29.76 in1007.8 mb - 0.00 in0.0 mm 0.04 in1.0 mm
04:30 AM 50.6°F10.3°C 49.8°F9.9°C 97% 11.6 mph WSW18.7 kmh WSW 17.0 mph27.4 kmh 29.75 in1007.5 mb - 0.00 in0.0 mm 0.04 in1.0 mm
04:45 AM 50.6°F10.3°C 49.8°F9.9°C 97% 10.6 mph WSW17.1 kmh WSW 16.0 mph25.7 kmh 29.74 in1007.1 mb - 0.00 in0.0 mm 0.04 in1.0 mm
05:00 AM 50.6°F10.3°C 49.8°F9.9°C 97% 11.4 mph WSW18.3 kmh WSW 15.0 mph24.1 kmh 29.74 in1007.1 mb - 0.00 in0.0 mm 0.04 in1.0 mm
05:15 AM 50.6°F10.3°C 49.8°F9.9°C 97% 8.9 mph W14.3 kmh W 14.0 mph22.5 kmh 29.75 in1007.5 mb - 0.00 in0.0 mm 0.04 in1.0 mm
05:30 AM 50.6°F10.3°C 49.8°F9.9°C 97% 11.1 mph WSW17.9 kmh WSW 19.0 mph30.6 kmh 29.75 in1007.5 mb - 0.00 in0.0 mm 0.04 in1.0 mm
05:45 AM 50.7°F10.4°C 49.8°F9.9°C 97% 12.3 mph SW19.8 kmh SW 14.0 mph22.5 kmh 29.74 in1007.1 mb - 0.00 in0.0 mm 0.04 in1.0 mm
06:00 AM 50.7°F10.4°C 49.8°F9.9°C 97% 10.4 mph WSW16.7 kmh WSW 16.0 mph25.7 kmh 29.74 in1007.1 mb - 0.00 in0.0 mm 0.04 in1.0 mm
06:15 AM 50.7°F10.4°C 49.9°F9.9°C 97% 10.1 mph WSW16.3 kmh WSW 13.0 mph20.9 kmh 29.73 in1006.8 mb - 0.00 in0.0 mm 0.04 in1.0 mm
06:30 AM 50.7°F10.4°C 49.9°F9.9°C 97% 9.7 mph SW15.6 kmh SW 18.0 mph29.0 kmh 29.73 in1006.8 mb - 0.00 in0.0 mm 0.04 in1.0 mm
06:45 AM 50.7°F10.4°C 49.9°F9.9°C 97% 12.8 mph WSW20.6 kmh WSW 19.0 mph30.6 kmh 29.73 in1006.8 mb - 0.00 in0.0 mm 0.04 in1.0 mm
07:00 AM 50.7°F10.4°C 49.9°F9.9°C 97% 8.1 mph WSW13.0 kmh WSW 13.0 mph20.9 kmh 29.73 in1006.8 mb - 0.00 in0.0 mm 0.04 in1.0 mm
07:15 AM 50.9°F10.5°C 50.1°F10.1°C 97% 12.2 mph SSW19.6 kmh SSW 18.0 mph29.0 kmh 29.72 in1006.4 mb - 0.00 in0.0 mm 0.04 in1.0 mm
07:30 AM 50.9°F10.5°C 50.1°F10.1°C 97% 14.3 mph WSW23.0 kmh WSW 22.0 mph35.4 kmh 29.72 in1006.4 mb - 0.00 in0.0 mm 0.04 in1.0 mm
07:45 AM 51.0°F10.6°C 50.2°F10.1°C 97% 12.7 mph WSW20.4 kmh WSW 15.0 mph24.1 kmh 29.71 in1006.1 mb - 0.00 in0.0 mm 0.04 in1.0 mm
08:00 AM 51.0°F10.6°C 50.2°F10.1°C 97% 14.2 mph SW22.9 kmh SW 20.0 mph32.2 kmh 29.72 in1006.4 mb - 0.00 in0.0 mm 0.04 in1.0 mm
08:15 AM 51.0°F10.6°C 50.2°F10.1°C 97% 12.9 mph WSW20.8 kmh WSW 20.0 mph32.2 kmh 29.71 in1006.1 mb - 0.00 in0.0 mm 0.04 in1.0 mm
08:30 AM 51.0°F10.6°C 50.2°F10.1°C 97% 17.5 mph WSW28.2 kmh WSW 24.0 mph38.6 kmh 29.71 in1006.1 mb - 0.01 in0.3 mm 0.05 in1.3 mm
08:45 AM 51.1°F10.6°C 50.3°F10.2°C 97% 16.2 mph SW26.1 kmh SW 25.0 mph40.2 kmh 29.70 in1005.8 mb - 0.00 in0.0 mm 0.05 in1.3 mm
09:00 AM 51.2°F10.7°C 50.4°F10.2°C 97% 14.9 mph SW24.0 kmh SW 23.0 mph37.0 kmh 29.70 in1005.8 mb - 0.00 in0.0 mm 0.05 in1.3 mm
09:15 AM 51.2°F10.7°C 50.4°F10.2°C 97% 9.8 mph SSW15.8 kmh SSW 21.0 mph33.8 kmh 29.70 in1005.8 mb - 0.00 in0.0 mm 0.05 in1.3 mm
09:30 AM 50.9°F10.5°C 50.1°F10.1°C 97% 13.3 mph SW21.4 kmh SW 21.0 mph33.8 kmh 29.70 in1005.8 mb - 0.00 in0.0 mm 0.05 in1.3 mm
09:45 AM 50.9°F10.5°C 50.1°F10.1°C 97% 13.9 mph WSW22.4 kmh WSW 19.0 mph30.6 kmh 29.70 in1005.8 mb - 0.00 in0.0 mm 0.05 in1.3 mm
10:00 AM 51.3°F10.7°C 50.5°F10.3°C 97% 14.9 mph W24.0 kmh W 21.0 mph33.8 kmh 29.70 in1005.8 mb - 0.00 in0.0 mm 0.05 in1.3 mm
10:15 AM 51.2°F10.7°C 50.4°F10.2°C 97% 17.9 mph SW28.8 kmh SW 26.0 mph41.8 kmh 29.70 in1005.8 mb - 0.00 in0.0 mm 0.05 in1.3 mm
10:30 AM 51.2°F10.7°C 50.4°F10.2°C 97% 14.3 mph SSW23.0 kmh SSW 31.0 mph49.9 kmh 29.70 in1005.8 mb - 0.00 in0.0 mm 0.05 in1.3 mm
10:45 AM 51.7°F10.9°C 50.6°F10.3°C 96% 14.1 mph WSW22.7 kmh WSW 20.0 mph32.2 kmh 29.69 in1005.4 mb - 0.00 in0.0 mm 0.05 in1.3 mm
11:00 AM 51.6°F10.9°C 50.5°F10.3°C 96% 16.9 mph SW27.2 kmh SW 29.0 mph46.7 kmh 29.69 in1005.4 mb - 0.00 in0.0 mm 0.05 in1.3 mm
11:15 AM 52.0°F11.1°C 50.6°F10.3°C 95% 14.6 mph SSW23.5 kmh SSW 21.0 mph33.8 kmh 29.69 in1005.4 mb - 0.00 in0.0 mm 0.05 in1.3 mm
11:30 AM 52.7°F11.5°C 51.3°F10.7°C 95% 14.6 mph WSW23.5 kmh WSW 22.0 mph35.4 kmh 29.69 in1005.4 mb - 0.00 in0.0 mm 0.05 in1.3 mm
11:45 AM 53.4°F11.9°C 51.4°F10.8°C 93% 12.2 mph SW19.6 kmh SW 18.0 mph29.0 kmh 29.68 in1005.1 mb - 0.00 in0.0 mm 0.05 in1.3 mm
12:00 PM 53.5°F11.9°C 50.6°F10.3°C 90% 14.6 mph SW23.5 kmh SW 17.0 mph27.4 kmh 29.68 in1005.1 mb - 0.00 in0.0 mm 0.05 in1.3 mm
12:15 PM 54.0°F12.2°C 50.8°F10.4°C 89% 12.9 mph WSW20.8 kmh WSW 19.0 mph30.6 kmh 29.68 in1005.1 mb - 0.00 in0.0 mm 0.05 in1.3 mm
12:30 PM 53.3°F11.8°C 49.5°F9.7°C 87% 15.7 mph SW25.3 kmh SW 24.0 mph38.6 kmh 29.68 in1005.1 mb - 0.00 in0.0 mm 0.05 in1.3 mm
12:45 PM 52.6°F11.4°C 49.2°F9.6°C 88% 17.0 mph SW27.4 kmh SW 21.0 mph33.8 kmh 29.67 in1004.7 mb - 0.00 in0.0 mm 0.05 in1.3 mm
01:00 PM 52.2°F11.2°C 49.1°F9.5°C 89% 16.2 mph S26.1 kmh S 22.0 mph35.4 kmh 29.67 in1004.7 mb - 0.00 in0.0 mm 0.05 in1.3 mm
01:15 PM 52.0°F11.1°C 48.9°F9.4°C 89% 15.8 mph SW25.4 kmh SW 23.0 mph37.0 kmh 29.67 in1004.7 mb - 0.00 in0.0 mm 0.05 in1.3 mm
01:30 PM 51.9°F11.1°C 49.1°F9.5°C 90% 13.8 mph WSW22.2 kmh WSW 22.0 mph35.4 kmh 29.66 in1004.4 mb - 0.00 in0.0 mm 0.05 in1.3 mm
01:45 PM 51.9°F11.1°C 49.4°F9.7°C 91% 10.1 mph SW16.3 kmh SW 19.0 mph30.6 kmh 29.66 in1004.4 mb - 0.00 in0.0 mm 0.05 in1.3 mm
02:00 PM 51.9°F11.1°C 49.6°F9.8°C 92% 17.3 mph SW27.8 kmh SW 30.0 mph48.3 kmh 29.66 in1004.4 mb - 0.00 in0.0 mm 0.05 in1.3 mm
02:15 PM 51.9°F11.1°C 49.9°F9.9°C 93% 16.0 mph WSW25.7 kmh WSW 23.0 mph37.0 kmh 29.66 in1004.4 mb - 0.00 in0.0 mm 0.05 in1.3 mm
02:30 PM 51.8°F11.0°C 49.9°F9.9°C 93% 14.8 mph SW23.8 kmh SW 19.0 mph30.6 kmh 29.66 in1004.4 mb - 0.01 in0.3 mm 0.06 in1.5 mm
02:45 PM 51.6°F10.9°C 49.9°F9.9°C 94% 12.0 mph WNW19.3 kmh WNW 13.0 mph20.9 kmh 29.66 in1004.4 mb - 0.02 in0.5 mm 0.07 in1.8 mm
03:00 PM 51.2°F10.7°C 49.6°F9.8°C 94% 11.7 mph SW18.8 kmh SW 24.0 mph38.6 kmh 29.66 in1004.4 mb - 0.01 in0.3 mm 0.08 in2.0 mm
03:15 PM 51.3°F10.7°C 49.6°F9.8°C 94% 8.7 mph WSW14.0 kmh WSW 15.5 mph24.9 kmh 29.66 in1004.4 mb - 0.01 in0.3 mm 0.09 in2.3 mm
03:30 PM 50.7°F10.4°C 49.0°F9.4°C 94% 8.3 mph SW13.4 kmh SW 11.0 mph17.7 kmh 29.66 in1004.4 mb - 0.00 in0.0 mm 0.09 in2.3 mm
03:45 PM 51.0°F10.6°C 49.6°F9.8°C 95% 8.8 mph WSW14.2 kmh WSW 12.0 mph19.3 kmh 29.65 in1004.1 mb - 0.00 in0.0 mm 0.09 in2.3 mm
04:00 PM 51.3°F10.7°C 49.9°F9.9°C 95% 9.0 mph WSW14.5 kmh WSW 12.0 mph19.3 kmh 29.66 in1004.4 mb - 0.00 in0.0 mm 0.09 in2.3 mm
04:15 PM 50.9°F10.5°C 49.2°F9.6°C 94% 9.1 mph WSW14.6 kmh WSW 14.0 mph22.5 kmh 29.66 in1004.4 mb - 0.00 in0.0 mm 0.09 in2.3 mm
04:30 PM 50.9°F10.5°C 49.2°F9.6°C 94% 11.8 mph WSW19.0 kmh WSW 15.0 mph24.1 kmh 29.66 in1004.4 mb - 0.00 in0.0 mm 0.09 in2.3 mm
04:45 PM 50.7°F10.4°C 49.0°F9.4°C 94% 6.9 mph WNW11.1 kmh WNW 8.0 mph12.9 kmh 29.66 in1004.4 mb - 0.00 in0.0 mm 0.09 in2.3 mm
05:00 PM 50.6°F10.3°C 48.9°F9.4°C 94% 6.7 mph SW10.8 kmh SW 12.0 mph19.3 kmh 29.67 in1004.7 mb - 0.00 in0.0 mm 0.09 in2.3 mm
05:15 PM 50.4°F10.2°C 48.7°F9.3°C 94% 8.3 mph WSW13.4 kmh WSW 13.0 mph20.9 kmh 29.67 in1004.7 mb - 0.00 in0.0 mm 0.09 in2.3 mm
05:30 PM 50.4°F10.2°C 48.4°F9.1°C 93% 10.5 mph WSW16.9 kmh WSW 13.4 mph21.6 kmh 29.68 in1005.1 mb - 0.00 in0.0 mm 0.09 in2.3 mm
05:45 PM 50.2°F10.1°C 48.2°F9.0°C 93% 9.1 mph W14.6 kmh W 9.3 mph15.0 kmh 29.68 in1005.1 mb - 0.00 in0.0 mm 0.09 in2.3 mm
06:00 PM 50.0°F10.0°C 48.1°F8.9°C 93% 8.7 mph W14.0 kmh W 10.0 mph16.1 kmh 29.69 in1005.4 mb - 0.00 in0.0 mm 0.09 in2.3 mm
06:15 PM 49.8°F9.9°C 47.9°F8.8°C 93% 7.5 mph W12.1 kmh W 17.0 mph27.4 kmh 29.69 in1005.4 mb - 0.00 in0.0 mm 0.09 in2.3 mm
06:30 PM 49.6°F9.8°C 47.6°F8.7°C 93% 9.1 mph WSW14.6 kmh WSW 11.3 mph18.2 kmh 29.69 in1005.4 mb - 0.00 in0.0 mm 0.09 in2.3 mm
06:45 PM 49.1°F9.5°C 47.2°F8.4°C 93% 5.4 mph W8.7 kmh W 9.0 mph14.5 kmh 29.70 in1005.8 mb - 0.00 in0.0 mm 0.09 in2.3 mm
07:00 PM 48.6°F9.2°C 46.7°F8.2°C 93% 6.4 mph W10.3 kmh W 8.2 mph13.2 kmh 29.70 in1005.8 mb - 0.00 in0.0 mm 0.09 in2.3 mm
07:15 PM 48.2°F9.0°C 46.3°F7.9°C 93% 6.7 mph W10.8 kmh W 9.0 mph14.5 kmh 29.70 in1005.8 mb - 0.00 in0.0 mm 0.09 in2.3 mm
07:30 PM 48.0°F8.9°C 46.1°F7.8°C 93% 6.5 mph WSW10.5 kmh WSW 12.0 mph19.3 kmh 29.71 in1006.1 mb - 0.00 in0.0 mm 0.09 in2.3 mm
07:45 PM 47.7°F8.7°C 45.8°F7.7°C 93% 3.6 mph WSW5.8 kmh WSW 6.2 mph10.0 kmh 29.71 in1006.1 mb - 0.00 in0.0 mm 0.09 in2.3 mm
08:00 PM 47.4°F8.6°C 45.5°F7.5°C 93% 4.8 mph SW7.7 kmh SW 8.0 mph12.9 kmh 29.72 in1006.4 mb - 0.00 in0.0 mm 0.09 in2.3 mm
08:15 PM 47.2°F8.4°C 45.3°F7.4°C 93% 2.4 mph WSW3.9 kmh WSW 4.0 mph6.4 kmh 29.72 in1006.4 mb - 0.00 in0.0 mm 0.09 in2.3 mm
08:30 PM 47.0°F8.3°C 45.1°F7.3°C 93% 4.9 mph WSW7.9 kmh WSW 8.0 mph12.9 kmh 29.72 in1006.4 mb - 0.00 in0.0 mm 0.09 in2.3 mm
08:45 PM 46.9°F8.3°C 45.0°F7.2°C 93% 5.3 mph W8.5 kmh W 9.0 mph14.5 kmh 29.72 in1006.4 mb - 0.00 in0.0 mm 0.09 in2.3 mm
09:00 PM 47.4°F8.6°C 45.8°F7.7°C 94% 5.1 mph WSW8.2 kmh WSW 8.2 mph13.2 kmh 29.73 in1006.8 mb - 0.00 in0.0 mm 0.09 in2.3 mm
09:15 PM 47.6°F8.7°C 46.0°F7.8°C 94% 5.5 mph WSW8.9 kmh WSW 13.0 mph20.9 kmh 29.73 in1006.8 mb - 0.00 in0.0 mm 0.09 in2.3 mm
09:30 PM 47.5°F8.6°C 45.9°F7.7°C 94% 8.5 mph WSW13.7 kmh WSW 13.0 mph20.9 kmh 29.73 in1006.8 mb - 0.00 in0.0 mm 0.09 in2.3 mm
09:45 PM 47.4°F8.6°C 45.8°F7.7°C 94% 6.3 mph W10.1 kmh W 10.0 mph16.1 kmh 29.73 in1006.8 mb - 0.00 in0.0 mm 0.09 in2.3 mm
10:00 PM 47.2°F8.4°C 45.5°F7.5°C 94% 7.5 mph W12.1 kmh W 12.4 mph20.0 kmh 29.74 in1007.1 mb - 0.00 in0.0 mm 0.09 in2.3 mm
10:15 PM 47.0°F8.3°C 45.4°F7.4°C 94% 5.7 mph W9.2 kmh W 14.0 mph22.5 kmh 29.74 in1007.1 mb - 0.00 in0.0 mm 0.09 in2.3 mm
10:30 PM 46.9°F8.3°C 45.3°F7.4°C 94% 5.0 mph W8.0 kmh W 9.3 mph15.0 kmh 29.74 in1007.1 mb - 0.00 in0.0 mm 0.09 in2.3 mm
10:45 PM 46.6°F8.1°C 45.0°F7.2°C 94% 8.2 mph WNW13.2 kmh WNW 11.3 mph18.2 kmh 29.74 in1007.1 mb - 0.00 in0.0 mm 0.09 in2.3 mm
11:00 PM 46.3°F7.9°C 44.4°F6.9°C 93% 5.8 mph SW9.3 kmh SW 8.0 mph12.9 kmh 29.74 in1007.1 mb - 0.00 in0.0 mm 0.09 in2.3 mm
11:15 PM 46.0°F7.8°C 44.1°F6.7°C 93% 5.1 mph WSW8.2 kmh WSW 7.2 mph11.6 kmh 29.74 in1007.1 mb - 0.00 in0.0 mm 0.09 in2.3 mm
11:30 PM 45.8°F7.7°C 43.9°F6.6°C 93% 4.6 mph WSW7.4 kmh WSW 7.2 mph11.6 kmh 29.74 in1007.1 mb - 0.00 in0.0 mm 0.09 in2.3 mm
11:45 PM 45.5°F7.5°C 43.6°F6.4°C 93% 4.6 mph WSW7.4 kmh WSW 6.0 mph9.7 kmh 29.75 in1007.5 mb - 0.00 in0.0 mm 0.09 in2.3 mm